Global Glory — 3FHR8 — position and weather

sailwx.info

Track history (hours):
 
Tides and Currents Weather Stations Pressure Air Temp Water Temp Dewpoint Dewpoint Depression Visibility Wind Speed Wind Dir Waves Ship Positions

Global Glory

Last reported at 2014-Nov-23 21:33 UTC. Time now 2014-Nov-23 22:30 UTC.
Position N 31°35' E 121°19'.

Length 189 m; draft 10.8 m.

Type: Ship. MMSI: 354338000.

Date/timePositionNaut miles runAvg speedWind from/ knotsBaromVisibWave heightAir tempDewpointWater temp
2014-Nov-23 21:33N 31°35' E 121°19'5 4.7
2014-Nov-23 20:33N 31°31' E 121°23'8 8.1
2014-Nov-23 19:33N 31°26' E 121°30'8 7.8
2014-Nov-23 18:33N 31°22' E 121°38'8 7.8
2014-Nov-23 17:33N 31°18' E 121°46'8 7.8
2014-Nov-23 16:33N 31°16' E 121°54'9 9.1
2014-Nov-23 15:33N 31°14' E 122°05'1111.2
2014-Nov-23 14:33N 31°08' E 122°16'1010.0
2014-Nov-23 13:33N 31°07' E 122°27'18 3.6
2014-Nov-23 08:29N 31°07' E 122°49'8 8.3
2014-Nov-23 07:33N 31°01' E 122°55'2310.9
2014-Nov-23 05:24N 30°38' E 122°58'6211.9
2014-Nov-23 00:11N 29°37' E 122°44'2011.2
2014-Nov-22 22:22N 29°19' E 122°35'810.5
2014-Nov-22 21:33N 29°11' E 122°31'40011.1
2014-Nov-21 09:31N 22°56' E 119°55'1212.9
2014-Nov-21 08:33N 22°44' E 119°55'1212.2
2014-Nov-21 07:32N 22°31' E 119°55'1211.9
2014-Nov-21 06:29N 22°19' E 119°55'1212.3
2014-Nov-21 05:32N 22°07' E 119°55'  
Track history (hours):
 
Tides and Currents Weather Stations Pressure Air Temp Water Temp Dewpoint Dewpoint Depression Visibility Wind Speed Wind Dir Waves Ship Positions

Global Glory

Last reported at 2014-Nov-23 21:33 UTC. Time now 2014-Nov-23 22:30 UTC.
Position N 31°35' E 121°19'.

Length 189 m; draft 10.8 m.

Type: Ship. MMSI: 354338000.

Date/timePositionNaut miles runAvg speedWind from/ knotsBaromVisibWave heightAir tempDewpointWater temp
2014-Nov-23 21:33N 31°35' E 121°19'5 4.7
2014-Nov-23 20:33N 31°31' E 121°23'8 8.1
2014-Nov-23 19:33N 31°26' E 121°30'8 7.8
2014-Nov-23 18:33N 31°22' E 121°38'8 7.8
2014-Nov-23 17:33N 31°18' E 121°46'8 7.8
2014-Nov-23 16:33N 31°16' E 121°54'9 9.1
2014-Nov-23 15:33N 31°14' E 122°05'1111.2
2014-Nov-23 14:33N 31°08' E 122°16'1010.0
2014-Nov-23 13:33N 31°07' E 122°27'18 3.6
2014-Nov-23 08:29N 31°07' E 122°49'8 8.3
2014-Nov-23 07:33N 31°01' E 122°55'2310.9
2014-Nov-23 05:24N 30°38' E 122°58'6211.9
2014-Nov-23 00:11N 29°37' E 122°44'2011.2
2014-Nov-22 22:22N 29°19' E 122°35'810.5
2014-Nov-22 21:33N 29°11' E 122°31'40011.1
2014-Nov-21 09:31N 22°56' E 119°55'1212.9
2014-Nov-21 08:33N 22°44' E 119°55'1212.2
2014-Nov-21 07:32N 22°31' E 119°55'1211.9
2014-Nov-21 06:29N 22°19' E 119°55'1212.3
2014-Nov-21 05:32N 22°07' E 119°55'  

Dump ship's entire track history